Latest Coastal Weather Observations for Red Rocks Point

IDW60701

Issued at 2:32 am WST Wednesday 29 June 2016 (issued every 10 minutes, with the page automatically refreshed every 10 minutes)

About coastal observations | Map of coastal stations | Coastal observations for WA | Marine services | Other Formats
Station Details ID: 011053 Name: RED ROCKS POINT Lat: -32.20 Lon: 127.53 Height: 3.1 m
Data from the previous 72 hours. | See also: Recent months at Red Rocks Point
Date/Time
WST
Temp
°C
Wind Pressure Rain since
9am
mm
Weather Cloud Vis
km
Sea
Height
m
Swell
Dir  Spd
kts
Gust
kts
hPa Trend Height
m
Period
s
Dir
29/02:30am 8.2 N 7 9 1014.9 - 0.0 - - - - - - -
29/02:00am 8.5 N 7 9 1015.3 - 0.0 - - - - - - -
29/01:30am 9.4 N 8 11 1015.4 - 0.0 - - - - - - -
29/01:00am 9.9 N 7 10 1015.7 - 0.0 - - - - - - -
29/12:30am 9.8 N 7 9 1015.8 - 0.0 - - - - - - -
29/12:00am 9.4 N 7 9 1016.0 - 0.0 - - - - - - -
 
Date/Time
WST
Temp
°C
Wind Pressure Rain since
9am
mm
Weather Cloud Vis
km
Sea
Height
m
Swell
Dir  Spd
kts
Gust
kts
hPa Trend Height
m
Period
s
Dir
28/11:30pm 9.3 N 7 9 1016.2 - 0.0 - - - - - - -
28/11:00pm 9.0 N 8 10 1016.5 - 0.0 - - - - - - -
28/10:30pm 8.4 N 7 9 1016.8 - 0.0 - - - - - - -
28/10:00pm 7.8 N 7 8 1017.2 - 0.0 - - - - - - -
28/09:30pm 8.1 N 8 9 1017.4 - 0.0 - - - - - - -
28/09:00pm 8.3 N 7 8 1017.5 - 0.0 - - - - - - -
28/08:30pm 8.7 N 7 9 1017.5 - 0.0 - - - - - - -
28/08:00pm 9.0 NNW 5 7 1017.7 - 0.0 - - - - - - -
28/07:30pm 9.0 N 6 7 1017.6 - 0.0 - - - - - - -
28/07:00pm 9.7 N 6 7 1017.6 - 0.0 - - - - - - -
28/06:30pm 10.1 N 6 6 1017.2 - 0.0 - - - - - - -
28/06:00pm 10.7 N 6 6 1017.1 - 0.0 - - - - - - -
28/05:30pm 11.9 N 6 6 1016.9 - 0.0 - - - - - - -
28/05:00pm 12.6 NNW 4 5 1016.6 - 0.0 - - - - - - -
28/04:30pm 16.2 NNW 6 9 1016.5 - 0.0 - - - - - - -
28/04:00pm 17.6 N 8 13 1016.2 - 0.0 - - - - - - -
28/03:30pm 18.4 NNW 9 14 1016.3 - 0.0 - - - - - - -
28/03:00pm 18.6 N 11 15 1016.3 - 0.0 - - - - - - -
28/02:30pm 19.0 NNW 10 16 1016.5 - 0.0 - - - - - - -
28/02:00pm 19.0 NNW 8 15 1016.5 - 0.0 - - - - - - -
28/01:30pm 18.5 NNW 11 19 1016.6 - 0.0 - - - - - - -
28/01:00pm 18.8 NW 12 18 1017.0 - 0.0 - - - - - - -
28/12:30pm 18.9 NNW 12 19 1018.0 - 0.0 - - - - - - -
28/12:00pm 18.1 NNW 11 17 1018.8 - 0.0 - - - - - - -
28/11:30am 17.6 NNW 11 18 1019.5 - 0.0 - - - - - - -
28/11:00am 17.3 NNW 12 17 1020.3 - 0.0 - - - - - - -
28/10:30am 17.1 N 10 15 1020.9 - 0.0 - - - - - - -
28/10:00am 15.9 N 11 17 1021.5 - 0.0 - - - - - - -
28/09:30am 14.8 N 10 14 1022.1 - 0.0 - - - - - - -
28/09:00am 13.4 N 8 13 1022.5 - 0.0 - - - - - - -
28/08:30am 11.3 N 8 11 1022.7 - 0.0 - - - - - - -
28/08:00am 9.2 N 7 11 1022.9 - 0.0 - - - - - - -
28/07:30am 6.7 N 7 9 1022.8 - 0.0 - - - - - - -
28/07:00am 5.8 N 6 8 1022.7 - 0.0 - - - - - - -
28/06:30am 6.1 N 7 9 1022.3 - 0.0 - - - - - - -
28/06:00am 6.7 N 7 10 1022.1 - 0.0 - - - - - - -
28/05:30am 7.0 N 9 12 1021.7 - 0.0 - - - - - - -
28/05:00am 6.9 N 8 12 1021.3 - 0.0 - - - - - - -
28/04:30am 6.6 N 8 11 1021.1 - 0.0 - - - - - - -
28/04:00am 6.1 N 9 13 1021.1 - 0.0 - - - - - - -
28/03:30am 6.0 N 9 11 1021.1 - 0.0 - - - - - - -
28/03:00am 6.0 N 8 11 1021.3 - 0.0 - - - - - - -
28/02:30am 5.8 N 8 11 1021.5 - 0.0 - - - - - - -
28/02:00am 6.8 N 9 16 1021.6 - 0.0 - - - - - - -
28/01:30am 6.3 N 8 11 1021.8 - 0.0 - - - - - - -
28/01:00am 5.5 N 9 11 1021.8 - 0.0 - - - - - - -
28/12:30am 6.3 N 9 12 1021.6 - 0.0 - - - - - - -
28/12:00am 5.4 N 8 10 1022.1 - 0.0 - - - - - - -
 
Date/Time
WST
Temp
°C
Wind Pressure Rain since
9am
mm
Weather Cloud Vis
km
Sea
Height
m
Swell
Dir  Spd
kts
Gust
kts
hPa Trend Height
m
Period
s
Dir
27/11:30pm 5.5 N 8 10 1022.4 - 0.0 - - - - - - -
27/11:00pm 5.3 N 8 9 1022.7 - 0.0 - - - - - - -
27/10:30pm 5.9 N 8 9 1022.7 - 0.0 - - - - - - -
27/10:00pm 6.5 N 9 11 1022.8 - 0.0 - - - - - - -
27/09:30pm 6.7 N 8 9 1022.7 - 0.0 - - - - - - -
27/09:00pm 7.1 N 8 9 1022.7 - 0.0 - - - - - - -
27/08:30pm 7.4 N 8 9 1022.8 - 0.0 - - - - - - -
27/08:00pm 7.8 N 7 8 1022.7 - 0.0 - - - - - - -
27/07:30pm 8.8 N 7 8 1022.8 - 0.0 - - - - - - -
27/07:00pm 8.9 N 7 8 1022.8 - 0.0 - - - - - - -
27/06:30pm 9.2 N 7 8 1022.6 - 0.0 - - - - - - -
27/06:00pm 9.2 N 6 7 1022.5 - 0.0 - - - - - - -
27/05:30pm 9.4 N 6 7 1022.4 - 0.0 - - - - - - -
27/05:00pm 10.1 N 5 6 1022.3 - 0.0 - - - - - - -
27/04:30pm 11.8 NNW 4 5 1022.2 - 0.0 - - - - - - -
27/04:00pm 14.8 NNW 6 9 1022.0 - 0.0 - - - - - - -
27/03:30pm 16.2 NNW 8 11 1021.9 - 0.0 - - - - - - -
27/03:00pm 17.1 NNW 8 13 1022.0 - 0.0 - - - - - - -
27/02:30pm 17.1 NNW 9 13 1022.0 - 0.0 - - - - - - -
27/02:00pm 17.3 NNW 8 14 1022.1 - 0.0 - - - - - - -
27/01:30pm 17.3 NW 10 14 1022.2 - 0.0 - - - - - - -
27/01:00pm 17.4 N 10 15 1022.5 - 0.0 - - - - - - -
27/12:30pm 17.6 NNW 8 15 1023.1 - 0.0 - - - - - - -
27/12:00pm 17.0 NNW 9 16 1023.5 - 0.0 - - - - - - -
27/11:30am 17.2 NNW 9 13 1024.2 - 0.0 - - - - - - -
27/11:00am 17.1 NW 7 14 1024.6 - 0.0 - - - - - - -
27/10:30am 15.8 NW 9 12 1025.1 - 0.0 - - - - - - -
27/10:00am 14.5 NNW 9 14 1025.4 - 0.0 - - - - - - -
27/09:30am 13.1 NW 8 13 1025.6 - 0.0 - - - - - - -
27/09:00am 11.3 NW 10 15 1025.8 - 0.0 - - - - - - -
27/08:30am 9.6 NW 8 11 1025.6 - 0.0 - - - - - - -
27/08:00am 7.3 NW 9 12 1025.4 - 0.0 - - - - - - -
27/07:30am 5.5 NW 8 11 1025.1 - 0.0 - - - - - - -
27/07:00am 3.8 NNW 6 8 1024.9 - 0.0 - - - - - - -
27/06:30am 3.2 NNW 7 10 1024.7 - 0.0 - - - - - - -
27/06:00am 3.4 NNW 7 10 1024.4 - 0.0 - - - - - - -
27/05:30am 3.7 NNW 7 10 1024.2 - 0.0 - - - - - - -
27/05:00am 3.9 NNW 8 10 1024.0 - 0.0 - - - - - - -
27/04:30am 3.8 NNW 8 10 1023.8 - 0.0 - - - - - - -
27/04:00am 4.3 NW 7 9 1023.8 - 0.0 - - - - - - -
27/03:30am 4.9 NW 7 10 1023.9 - 0.0 - - - - - - -
27/03:00am 5.2 NW 7 9 1023.9 - 0.0 - - - - - - -
27/02:30am 5.4 NW 7 9 1023.7 - 0.0 - - - - - - -
27/02:00am 5.9 NW 8 10 1023.8 - 0.0 - - - - - - -
27/01:30am 5.7 NW 8 9 1023.7 - 0.0 - - - - - - -
27/01:00am 5.7 NW 8 9 1023.6 - 0.0 - - - - - - -
27/12:30am 6.0 NW 9 11 1023.7 - 0.0 - - - - - - -
27/12:00am 6.0 NW 9 10 1023.8 - 0.0 - - - - - - -
 
Date/Time
WST
Temp
°C
Wind Pressure Rain since
9am
mm
Weather Cloud Vis
km
Sea
Height
m
Swell
Dir  Spd
kts
Gust
kts
hPa Trend Height
m
Period
s
Dir
26/11:30pm 6.2 NW 10 11 1024.0 - 0.0 - - - - - - -
26/11:00pm 6.4 NW 10 11 1024.0 - 0.0 - - - - - - -
26/10:30pm 6.6 NW 9 10 1023.9 - 0.0 - - - - - - -
26/10:00pm 7.1 NW 9 11 1024.0 - 0.0 - - - - - - -
26/09:30pm 7.9 NW 9 10 1023.7 - 0.0 - - - - - - -
26/09:00pm 7.9 NW 9 10 1023.5 - 0.0 - - - - - - -
26/08:30pm 8.1 NW 9 10 1023.5 - 0.0 - - - - - - -
26/08:00pm 8.3 NW 9 9 1023.4 - 0.0 - - - - - - -
26/07:30pm 8.6 NW 9 9 1023.4 - 0.0 - - - - - - -
26/07:00pm 9.4 WNW 8 9 1023.2 - 0.0 - - - - - - -
26/06:30pm 9.5 WNW 7 9 1023.3 - 0.0 - - - - - - -
26/06:00pm 10.8 WNW 6 8 1023.0 - 0.0 - - - - - - -
26/05:30pm 12.4 WSW 6 8 1022.7 - 0.0 - - - - - - -
26/05:00pm 13.0 SW 7 10 1022.7 - 0.0 - - - - - - -
26/04:30pm 13.4 SW 8 12 1022.4 - 0.0 - - - - - - -
26/04:00pm 14.4 SW 9 13 1022.2 - 0.0 - - - - - - -
26/03:30pm 15.2 SW 9 12 1022.2 - 0.0 - - - - - - -
26/03:00pm 16.1 SW 8 13 1022.0 - 0.0 - - - - - - -
26/02:30pm 16.3 SW 9 13 1021.9 - 0.0 - - - - - - -
26/02:00pm 16.9 SW 9 14 1021.6 - 0.0 - - - - - - -
26/01:30pm 16.4 SSW 12 15 1021.5 - 0.0 - - - - - - -
26/01:00pm 16.8 SSW 11 14 1021.2 - 0.0 - - - - - - -
26/12:30pm 16.4 SSW 10 14 1021.4 - 0.0 - - - - - - -
26/12:00pm 17.0 SSW 12 16 1021.7 - 0.0 - - - - - - -
26/11:30am 16.4 SSW 14 17 1021.8 - 0.0 - - - - - - -
26/11:00am 16.2 SSW 15 19 1021.8 - 0.0 - - - - - - -
26/10:30am 15.5 S 16 19 1022.1 - 0.0 - - - - - - -
26/10:00am 16.0 SSW 13 17 1022.2 - 0.0 - - - - - - -
26/09:30am 15.6 SSW 13 18 1022.1 - 0.0 - - - - - - -
26/09:00am 15.1 SSW 14 19 1021.9 - 0.6 - - - - - - -
26/08:30am 15.0 S 19 23 1021.3 - 0.6 - - - - - - -
26/08:00am 14.7 SSW 16 22 1021.1 - 0.6 - - - - - - -
26/07:30am 14.3 SSW 17 21 1020.4 - 0.6 - - - - - - -
26/07:00am 13.8 SSW 15 19 1020.2 - 0.6 - - - - - - -
26/06:30am 13.5 SSW 17 24 1019.8 - 0.6 - - - - - - -
26/06:00am 13.4 SSW 15 21 1019.5 - 0.6 - - - - - - -
26/05:30am 13.3 SSW 17 24 1019.2 - 0.6 - - - - - - -
26/05:00am 13.4 SSW 18 23 1018.8 - 0.6 - - - - - - -
26/04:30am 12.9 SSW 14 22 1018.6 - 0.6 - - - - - - -
26/04:00am 12.4 S 19 24 1018.4 - 0.6 - - - - - - -
26/03:38am 12.9 SSW 17 30 1018.1 - 0.2 - - - - - - -
26/03:30am 12.5 SSW 15 21 1017.8 - 0.2 - - - - - - -
26/03:29am 12.5 SSW 15 21 1017.8 - 0.2 - - - - - - -
26/03:00am 8.6 WNW 8 10 1017.6 - 0.2 Rain - - - - - -

Other Formats:

Comma delimited format used in spreadsheet applications
http://www.bom.gov.au/fwo/IDW60701/IDW60701.94644.axf

JavaScript Object Notation format (JSON) in row-major order
http://www.bom.gov.au/fwo/IDW60701/IDW60701.94644.json